sensor_id;sensor_type;location;lat;lon;timestamp;temperature;humidity
12130;DHT22;6128;59.340;18.040;2023-05-27T00:00:46;10.80;75.40
12130;DHT22;6128;59.340;18.040;2023-05-27T00:03:15;10.80;75.70
12130;DHT22;6128;59.340;18.040;2023-05-27T00:05:46;10.80;75.70
12130;DHT22;6128;59.340;18.040;2023-05-27T00:08:15;10.80;75.70
12130;DHT22;6128;59.340;18.040;2023-05-27T00:10:47;10.80;75.70
12130;DHT22;6128;59.340;18.040;2023-05-27T00:13:14;10.90;75.60
12130;DHT22;6128;59.340;18.040;2023-05-27T00:15:44;10.80;75.50
12130;DHT22;6128;59.340;18.040;2023-05-27T00:18:14;10.90;75.90
12130;DHT22;6128;59.340;18.040;2023-05-27T00:20:43;10.90;76.10
12130;DHT22;6128;59.340;18.040;2023-05-27T00:23:11;10.90;77.60
12130;DHT22;6128;59.340;18.040;2023-05-27T00:25:40;10.90;77.60
12130;DHT22;6128;59.340;18.040;2023-05-27T00:28:08;10.80;78.00
12130;DHT22;6128;59.340;18.040;2023-05-27T00:30:35;10.80;77.90
12130;DHT22;6128;59.340;18.040;2023-05-27T00:33:03;10.80;78.00
12130;DHT22;6128;59.340;18.040;2023-05-27T00:35:30;10.80;77.80
12130;DHT22;6128;59.340;18.040;2023-05-27T00:37:58;10.80;77.70
12130;DHT22;6128;59.340;18.040;2023-05-27T00:40:26;10.80;77.80
12130;DHT22;6128;59.340;18.040;2023-05-27T00:43:00;10.80;77.80
12130;DHT22;6128;59.340;18.040;2023-05-27T00:45:28;10.80;78.20
12130;DHT22;6128;59.340;18.040;2023-05-27T00:47:56;10.90;78.50
12130;DHT22;6128;59.340;18.040;2023-05-27T00:50:25;10.90;79.10
12130;DHT22;6128;59.340;18.040;2023-05-27T00:52:53;10.90;79.80
12130;DHT22;6128;59.340;18.040;2023-05-27T00:55:24;10.90;80.20
12130;DHT22;6128;59.340;18.040;2023-05-27T00:57:51;10.80;80.60
12130;DHT22;6128;59.340;18.040;2023-05-27T01:00:25;10.80;80.90
12130;DHT22;6128;59.340;18.040;2023-05-27T01:02:53;10.90;81.20
12130;DHT22;6128;59.340;18.040;2023-05-27T01:05:21;10.90;81.60
12130;DHT22;6128;59.340;18.040;2023-05-27T01:08:02;11.00;81.60
12130;DHT22;6128;59.340;18.040;2023-05-27T01:10:36;11.00;81.80
12130;DHT22;6128;59.340;18.040;2023-05-27T01:13:12;11.00;81.90
12130;DHT22;6128;59.340;18.040;2023-05-27T01:15:42;11.00;81.70
12130;DHT22;6128;59.340;18.040;2023-05-27T01:18:09;11.00;81.80
12130;DHT22;6128;59.340;18.040;2023-05-27T01:20:43;11.00;81.70
12130;DHT22;6128;59.340;18.040;2023-05-27T01:23:12;11.00;81.90
12130;DHT22;6128;59.340;18.040;2023-05-27T01:25:40;11.00;81.90
12130;DHT22;6128;59.340;18.040;2023-05-27T01:28:07;11.00;82.00
12130;DHT22;6128;59.340;18.040;2023-05-27T01:30:34;11.00;82.40
12130;DHT22;6128;59.340;18.040;2023-05-27T01:33:06;11.00;82.50
12130;DHT22;6128;59.340;18.040;2023-05-27T01:35:40;11.00;82.50
12130;DHT22;6128;59.340;18.040;2023-05-27T01:38:12;11.00;82.50
12130;DHT22;6128;59.340;18.040;2023-05-27T01:40:40;11.00;82.30
12130;DHT22;6128;59.340;18.040;2023-05-27T01:43:08;11.00;82.40
12130;DHT22;6128;59.340;18.040;2023-05-27T01:45:36;11.00;82.40
12130;DHT22;6128;59.340;18.040;2023-05-27T01:48:03;11.00;82.60
12130;DHT22;6128;59.340;18.040;2023-05-27T01:50:30;11.00;82.70
12130;DHT22;6128;59.340;18.040;2023-05-27T01:52:59;11.00;82.90
12130;DHT22;6128;59.340;18.040;2023-05-27T01:55:27;11.00;83.30
12130;DHT22;6128;59.340;18.040;2023-05-27T01:57:56;11.00;83.40
12130;DHT22;6128;59.340;18.040;2023-05-27T02:00:23;11.00;83.60
12130;DHT22;6128;59.340;18.040;2023-05-27T02:02:50;11.00;83.90
12130;DHT22;6128;59.340;18.040;2023-05-27T02:05:18;11.00;84.30
12130;DHT22;6128;59.340;18.040;2023-05-27T02:07:45;11.00;84.80
12130;DHT22;6128;59.340;18.040;2023-05-27T02:10:12;11.00;85.00
12130;DHT22;6128;59.340;18.040;2023-05-27T02:12:40;11.00;85.20
12130;DHT22;6128;59.340;18.040;2023-05-27T02:15:20;11.00;85.60
12130;DHT22;6128;59.340;18.040;2023-05-27T02:17:49;11.00;85.80
12130;DHT22;6128;59.340;18.040;2023-05-27T02:20:20;11.00;86.10
12130;DHT22;6128;59.340;18.040;2023-05-27T02:22:49;11.00;86.30
12130;DHT22;6128;59.340;18.040;2023-05-27T02:25:16;11.00;86.60
12130;DHT22;6128;59.340;18.040;2023-05-27T02:27:45;11.10;86.80
12130;DHT22;6128;59.340;18.040;2023-05-27T02:30:14;11.10;86.80
12130;DHT22;6128;59.340;18.040;2023-05-27T02:32:41;11.10;86.80
12130;DHT22;6128;59.340;18.040;2023-05-27T02:35:12;11.10;86.60
12130;DHT22;6128;59.340;18.040;2023-05-27T02:37:42;11.10;86.50
12130;DHT22;6128;59.340;18.040;2023-05-27T02:40:09;11.10;86.40
12130;DHT22;6128;59.340;18.040;2023-05-27T02:42:37;11.10;86.30
12130;DHT22;6128;59.340;18.040;2023-05-27T02:45:07;11.20;86.30
12130;DHT22;6128;59.340;18.040;2023-05-27T02:47:34;11.20;86.30
12130;DHT22;6128;59.340;18.040;2023-05-27T02:50:01;11.20;86.20
12130;DHT22;6128;59.340;18.040;2023-05-27T02:52:28;11.30;86.10
12130;DHT22;6128;59.340;18.040;2023-05-27T02:54:55;11.30;86.00
12130;DHT22;6128;59.340;18.040;2023-05-27T02:57:23;11.30;85.90
12130;DHT22;6128;59.340;18.040;2023-05-27T02:59:50;11.40;85.70
12130;DHT22;6128;59.340;18.040;2023-05-27T03:02:18;11.40;85.40
12130;DHT22;6128;59.340;18.040;2023-05-27T03:04:45;11.40;85.30
12130;DHT22;6128;59.340;18.040;2023-05-27T03:07:13;11.50;85.10
12130;DHT22;6128;59.340;18.040;2023-05-27T03:09:40;11.50;84.70
12130;DHT22;6128;59.340;18.040;2023-05-27T03:12:08;11.60;84.10
12130;DHT22;6128;59.340;18.040;2023-05-27T03:14:35;11.60;83.70
12130;DHT22;6128;59.340;18.040;2023-05-27T03:17:02;11.60;83.10
12130;DHT22;6128;59.340;18.040;2023-05-27T03:19:30;11.60;82.60
12130;DHT22;6128;59.340;18.040;2023-05-27T03:21:57;11.60;82.10
12130;DHT22;6128;59.340;18.040;2023-05-27T03:24:25;11.70;81.60
12130;DHT22;6128;59.340;18.040;2023-05-27T03:26:52;11.70;81.10
12130;DHT22;6128;59.340;18.040;2023-05-27T03:29:20;11.60;80.70
12130;DHT22;6128;59.340;18.040;2023-05-27T03:31:47;11.60;80.30
12130;DHT22;6128;59.340;18.040;2023-05-27T03:34:14;11.60;79.90
12130;DHT22;6128;59.340;18.040;2023-05-27T03:36:47;11.70;79.50
12130;DHT22;6128;59.340;18.040;2023-05-27T03:39:16;11.70;79.10
12130;DHT22;6128;59.340;18.040;2023-05-27T03:41:46;11.60;78.90
12130;DHT22;6128;59.340;18.040;2023-05-27T03:44:13;11.50;78.50
12130;DHT22;6128;59.340;18.040;2023-05-27T03:46:40;11.50;78.30
12130;DHT22;6128;59.340;18.040;2023-05-27T03:49:08;11.50;78.00
12130;DHT22;6128;59.340;18.040;2023-05-27T03:51:37;11.50;77.80
12130;DHT22;6128;59.340;18.040;2023-05-27T03:54:05;11.50;77.50
12130;DHT22;6128;59.340;18.040;2023-05-27T03:56:32;11.50;77.20
12130;DHT22;6128;59.340;18.040;2023-05-27T03:59:00;11.50;77.00
12130;DHT22;6128;59.340;18.040;2023-05-27T04:01:27;11.50;76.80
12130;DHT22;6128;59.340;18.040;2023-05-27T04:03:54;11.70;76.50
12130;DHT22;6128;59.340;18.040;2023-05-27T04:06:21;11.80;76.30
12130;DHT22;6128;59.340;18.040;2023-05-27T04:08:49;12.00;76.10
12130;DHT22;6128;59.340;18.040;2023-05-27T04:11:17;12.10;75.90
12130;DHT22;6128;59.340;18.040;2023-05-27T04:13:44;12.30;75.60
12130;DHT22;6128;59.340;18.040;2023-05-27T04:16:12;12.30;75.40
12130;DHT22;6128;59.340;18.040;2023-05-27T04:18:41;12.30;75.10
12130;DHT22;6128;59.340;18.040;2023-05-27T04:21:08;12.20;74.80
12130;DHT22;6128;59.340;18.040;2023-05-27T04:23:35;12.00;74.30
12130;DHT22;6128;59.340;18.040;2023-05-27T04:26:02;12.10;73.90
12130;DHT22;6128;59.340;18.040;2023-05-27T04:28:32;12.20;73.50
12130;DHT22;6128;59.340;18.040;2023-05-27T04:30:59;12.20;73.20
12130;DHT22;6128;59.340;18.040;2023-05-27T04:33:27;12.20;72.90
12130;DHT22;6128;59.340;18.040;2023-05-27T04:35:54;12.40;72.60
12130;DHT22;6128;59.340;18.040;2023-05-27T04:38:21;12.40;72.60
12130;DHT22;6128;59.340;18.040;2023-05-27T04:40:49;12.50;72.50
12130;DHT22;6128;59.340;18.040;2023-05-27T04:43:18;12.70;72.40
12130;DHT22;6128;59.340;18.040;2023-05-27T04:45:47;12.70;72.30
12130;DHT22;6128;59.340;18.040;2023-05-27T04:48:14;12.80;72.20
12130;DHT22;6128;59.340;18.040;2023-05-27T04:50:41;12.90;72.10
12130;DHT22;6128;59.340;18.040;2023-05-27T04:53:09;13.00;71.90
12130;DHT22;6128;59.340;18.040;2023-05-27T04:55:36;13.00;71.80
12130;DHT22;6128;59.340;18.040;2023-05-27T04:58:04;13.00;71.80
12130;DHT22;6128;59.340;18.040;2023-05-27T05:00:31;13.10;71.70
12130;DHT22;6128;59.340;18.040;2023-05-27T05:03:06;13.10;71.60
12130;DHT22;6128;59.340;18.040;2023-05-27T05:05:34;13.10;71.50
12130;DHT22;6128;59.340;18.040;2023-05-27T05:08:02;13.00;71.20
12130;DHT22;6128;59.340;18.040;2023-05-27T05:10:30;13.00;70.90
12130;DHT22;6128;59.340;18.040;2023-05-27T05:12:57;12.90;70.50
12130;DHT22;6128;59.340;18.040;2023-05-27T05:15:25;13.00;70.20
12130;DHT22;6128;59.340;18.040;2023-05-27T05:17:52;13.00;69.80
12130;DHT22;6128;59.340;18.040;2023-05-27T05:20:20;12.90;69.50
12130;DHT22;6128;59.340;18.040;2023-05-27T05:22:47;12.90;69.40
12130;DHT22;6128;59.340;18.040;2023-05-27T05:25:14;13.00;69.10
12130;DHT22;6128;59.340;18.040;2023-05-27T05:27:41;13.00;69.00
12130;DHT22;6128;59.340;18.040;2023-05-27T05:30:09;13.00;68.80
12130;DHT22;6128;59.340;18.040;2023-05-27T05:32:36;13.00;68.70
12130;DHT22;6128;59.340;18.040;2023-05-27T05:35:04;12.90;68.60
12130;DHT22;6128;59.340;18.040;2023-05-27T05:37:33;13.00;68.60
12130;DHT22;6128;59.340;18.040;2023-05-27T05:40:01;12.90;68.50
12130;DHT22;6128;59.340;18.040;2023-05-27T05:42:28;12.80;68.50
12130;DHT22;6128;59.340;18.040;2023-05-27T05:44:55;12.90;68.50
12130;DHT22;6128;59.340;18.040;2023-05-27T05:47:22;12.90;68.50
12130;DHT22;6128;59.340;18.040;2023-05-27T05:49:50;13.10;68.60
12130;DHT22;6128;59.340;18.040;2023-05-27T05:52:17;13.60;69.10
12130;DHT22;6128;59.340;18.040;2023-05-27T05:54:45;14.10;69.40
12130;DHT22;6128;59.340;18.040;2023-05-27T05:57:12;14.80;69.60
12130;DHT22;6128;59.340;18.040;2023-05-27T05:59:39;15.30;69.80
12130;DHT22;6128;59.340;18.040;2023-05-27T06:02:07;16.30;69.80
12130;DHT22;6128;59.340;18.040;2023-05-27T06:04:34;17.10;69.80
12130;DHT22;6128;59.340;18.040;2023-05-27T06:07:01;18.00;69.50
12130;DHT22;6128;59.340;18.040;2023-05-27T06:09:28;18.60;69.50
12130;DHT22;6128;59.340;18.040;2023-05-27T06:11:57;18.90;69.30
12130;DHT22;6128;59.340;18.040;2023-05-27T06:14:24;19.00;69.00
12130;DHT22;6128;59.340;18.040;2023-05-27T06:16:51;19.60;68.80
12130;DHT22;6128;59.340;18.040;2023-05-27T06:19:18;20.40;68.60
12130;DHT22;6128;59.340;18.040;2023-05-27T06:21:46;21.10;68.40
12130;DHT22;6128;59.340;18.040;2023-05-27T06:24:13;21.60;68.10
12130;DHT22;6128;59.340;18.040;2023-05-27T06:26:41;21.60;67.70
12130;DHT22;6128;59.340;18.040;2023-05-27T06:29:09;22.00;67.50
12130;DHT22;6128;59.340;18.040;2023-05-27T06:31:36;22.50;67.30
12130;DHT22;6128;59.340;18.040;2023-05-27T06:34:03;22.80;66.60
12130;DHT22;6128;59.340;18.040;2023-05-27T06:36:31;22.70;66.20
12130;DHT22;6128;59.340;18.040;2023-05-27T06:38:58;22.80;65.80
12130;DHT22;6128;59.340;18.040;2023-05-27T06:41:25;22.60;65.40
12130;DHT22;6128;59.340;18.040;2023-05-27T06:43:52;22.80;65.10
12130;DHT22;6128;59.340;18.040;2023-05-27T06:46:21;23.00;64.50
12130;DHT22;6128;59.340;18.040;2023-05-27T06:48:48;23.50;64.10
12130;DHT22;6128;59.340;18.040;2023-05-27T06:51:15;23.50;63.60
12130;DHT22;6128;59.340;18.040;2023-05-27T06:53:43;23.60;63.20
12130;DHT22;6128;59.340;18.040;2023-05-27T06:56:10;23.70;62.80
12130;DHT22;6128;59.340;18.040;2023-05-27T06:58:37;23.60;62.30
12130;DHT22;6128;59.340;18.040;2023-05-27T07:01:04;23.00;61.60
12130;DHT22;6128;59.340;18.040;2023-05-27T07:03:33;22.30;61.10
12130;DHT22;6128;59.340;18.040;2023-05-27T07:06:00;22.30;60.70
12130;DHT22;6128;59.340;18.040;2023-05-27T07:08:27;22.40;60.30
12130;DHT22;6128;59.340;18.040;2023-05-27T07:10:54;22.70;60.00
12130;DHT22;6128;59.340;18.040;2023-05-27T07:13:21;23.20;59.60
12130;DHT22;6128;59.340;18.040;2023-05-27T07:15:48;23.40;59.20
12130;DHT22;6128;59.340;18.040;2023-05-27T07:18:16;23.60;58.90
12130;DHT22;6128;59.340;18.040;2023-05-27T07:20:44;23.90;58.60
12130;DHT22;6128;59.340;18.040;2023-05-27T07:23:11;24.10;57.70
12130;DHT22;6128;59.340;18.040;2023-05-27T07:25:38;24.30;57.30
12130;DHT22;6128;59.340;18.040;2023-05-27T07:28:06;24.80;57.00
12130;DHT22;6128;59.340;18.040;2023-05-27T07:30:33;24.90;56.80
12130;DHT22;6128;59.340;18.040;2023-05-27T07:33:00;25.10;56.50
12130;DHT22;6128;59.340;18.040;2023-05-27T07:35:27;25.20;56.20
12130;DHT22;6128;59.340;18.040;2023-05-27T07:37:56;25.10;55.90
12130;DHT22;6128;59.340;18.040;2023-05-27T07:40:24;24.90;55.40
12130;DHT22;6128;59.340;18.040;2023-05-27T07:42:51;24.80;54.90
12130;DHT22;6128;59.340;18.040;2023-05-27T07:45:18;24.40;54.30
12130;DHT22;6128;59.340;18.040;2023-05-27T07:47:45;24.10;53.50
12130;DHT22;6128;59.340;18.040;2023-05-27T07:50:13;23.80;52.90
12130;DHT22;6128;59.340;18.040;2023-05-27T07:52:41;23.60;52.50
12130;DHT22;6128;59.340;18.040;2023-05-27T07:55:10;23.50;52.10
12130;DHT22;6128;59.340;18.040;2023-05-27T07:57:37;23.20;51.80
12130;DHT22;6128;59.340;18.040;2023-05-27T08:00:05;23.10;51.40
12130;DHT22;6128;59.340;18.040;2023-05-27T08:02:32;22.80;51.30
12130;DHT22;6128;59.340;18.040;2023-05-27T08:05:00;22.60;51.20
12130;DHT22;6128;59.340;18.040;2023-05-27T08:07:27;22.50;51.20
12130;DHT22;6128;59.340;18.040;2023-05-27T08:09:54;22.20;51.30
12130;DHT22;6128;59.340;18.040;2023-05-27T08:12:23;22.10;51.40
12130;DHT22;6128;59.340;18.040;2023-05-27T08:14:51;21.80;51.50
12130;DHT22;6128;59.340;18.040;2023-05-27T08:17:18;21.70;51.70
12130;DHT22;6128;59.340;18.040;2023-05-27T08:19:45;21.50;52.00
12130;DHT22;6128;59.340;18.040;2023-05-27T08:22:13;21.40;52.20
12130;DHT22;6128;59.340;18.040;2023-05-27T08:24:40;21.30;52.30
12130;DHT22;6128;59.340;18.040;2023-05-27T08:27:15;21.10;52.60
12130;DHT22;6128;59.340;18.040;2023-05-27T08:29:44;20.60;52.80
12130;DHT22;6128;59.340;18.040;2023-05-27T08:32:11;20.60;53.10
12130;DHT22;6128;59.340;18.040;2023-05-27T08:34:39;20.20;53.40
12130;DHT22;6128;59.340;18.040;2023-05-27T08:37:07;20.00;53.70
12130;DHT22;6128;59.340;18.040;2023-05-27T08:39:34;19.70;53.90
12130;DHT22;6128;59.340;18.040;2023-05-27T08:42:02;19.50;54.20
12130;DHT22;6128;59.340;18.040;2023-05-27T08:44:31;19.40;54.40
12130;DHT22;6128;59.340;18.040;2023-05-27T08:47:00;19.30;54.50
12130;DHT22;6128;59.340;18.040;2023-05-27T08:49:29;19.40;54.60
12130;DHT22;6128;59.340;18.040;2023-05-27T08:51:57;19.40;54.60
12130;DHT22;6128;59.340;18.040;2023-05-27T08:54:26;19.50;54.80
12130;DHT22;6128;59.340;18.040;2023-05-27T08:56:55;19.70;55.00
12130;DHT22;6128;59.340;18.040;2023-05-27T08:59:24;20.40;55.20
12130;DHT22;6128;59.340;18.040;2023-05-27T09:01:52;21.10;55.40
12130;DHT22;6128;59.340;18.040;2023-05-27T09:04:22;21.80;55.70
12130;DHT22;6128;59.340;18.040;2023-05-27T09:06:50;22.30;55.70
12130;DHT22;6128;59.340;18.040;2023-05-27T09:09:18;22.60;55.90
12130;DHT22;6128;59.340;18.040;2023-05-27T09:11:46;23.00;55.80
12130;DHT22;6128;59.340;18.040;2023-05-27T09:14:20;23.00;55.60
12130;DHT22;6128;59.340;18.040;2023-05-27T09:16:47;23.00;55.00
12130;DHT22;6128;59.340;18.040;2023-05-27T09:19:15;23.00;54.90
12130;DHT22;6128;59.340;18.040;2023-05-27T09:21:44;23.40;54.70
12130;DHT22;6128;59.340;18.040;2023-05-27T09:24:12;23.30;54.40
12130;DHT22;6128;59.340;18.040;2023-05-27T09:26:39;22.50;54.10
12130;DHT22;6128;59.340;18.040;2023-05-27T09:29:07;21.70;53.60
12130;DHT22;6128;59.340;18.040;2023-05-27T09:31:38;21.10;53.30
12130;DHT22;6128;59.340;18.040;2023-05-27T09:34:10;20.50;52.80
12130;DHT22;6128;59.340;18.040;2023-05-27T09:36:44;20.00;52.30
12130;DHT22;6128;59.340;18.040;2023-05-27T09:39:12;19.40;52.10
12130;DHT22;6128;59.340;18.040;2023-05-27T09:41:39;18.80;51.90
12130;DHT22;6128;59.340;18.040;2023-05-27T09:44:07;18.60;52.00
12130;DHT22;6128;59.340;18.040;2023-05-27T09:46:35;18.40;52.10
12130;DHT22;6128;59.340;18.040;2023-05-27T09:49:05;18.10;52.20
12130;DHT22;6128;59.340;18.040;2023-05-27T09:51:35;18.00;52.20
12130;DHT22;6128;59.340;18.040;2023-05-27T09:54:06;17.80;52.30
12130;DHT22;6128;59.340;18.040;2023-05-27T09:56:35;17.70;52.30
12130;DHT22;6128;59.340;18.040;2023-05-27T09:59:02;17.70;52.40
12130;DHT22;6128;59.340;18.040;2023-05-27T10:01:32;17.70;52.40
12130;DHT22;6128;59.340;18.040;2023-05-27T10:04:02;17.70;52.50
12130;DHT22;6128;59.340;18.040;2023-05-27T10:06:31;17.50;52.50
12130;DHT22;6128;59.340;18.040;2023-05-27T10:09:01;17.50;52.60
12130;DHT22;6128;59.340;18.040;2023-05-27T10:11:49;17.40;52.70
12130;DHT22;6128;59.340;18.040;2023-05-27T10:14:21;17.40;52.80
12130;DHT22;6128;59.340;18.040;2023-05-27T10:16:52;17.30;52.80
12130;DHT22;6128;59.340;18.040;2023-05-27T10:19:20;17.40;52.90
12130;DHT22;6128;59.340;18.040;2023-05-27T10:21:47;17.40;53.00
12130;DHT22;6128;59.340;18.040;2023-05-27T10:24:14;17.40;53.00
12130;DHT22;6128;59.340;18.040;2023-05-27T10:26:45;17.40;53.00
12130;DHT22;6128;59.340;18.040;2023-05-27T10:29:16;17.50;53.00
12130;DHT22;6128;59.340;18.040;2023-05-27T10:31:44;17.50;53.10
12130;DHT22;6128;59.340;18.040;2023-05-27T10:34:12;17.50;53.20
12130;DHT22;6128;59.340;18.040;2023-05-27T10:36:39;17.60;53.30
12130;DHT22;6128;59.340;18.040;2023-05-27T10:39:13;17.50;53.50
12130;DHT22;6128;59.340;18.040;2023-05-27T10:41:43;17.50;53.70
12130;DHT22;6128;59.340;18.040;2023-05-27T10:44:11;17.40;53.80
12130;DHT22;6128;59.340;18.040;2023-05-27T10:46:39;17.50;54.00
12130;DHT22;6128;59.340;18.040;2023-05-27T10:49:11;17.50;54.10
12130;DHT22;6128;59.340;18.040;2023-05-27T10:51:41;17.50;54.30
12130;DHT22;6128;59.340;18.040;2023-05-27T10:54:09;17.60;54.40
12130;DHT22;6128;59.340;18.040;2023-05-27T10:56:37;17.60;54.50
12130;DHT22;6128;59.340;18.040;2023-05-27T10:59:09;17.50;54.60
12130;DHT22;6128;59.340;18.040;2023-05-27T11:01:39;17.60;54.90
12130;DHT22;6128;59.340;18.040;2023-05-27T11:04:06;17.70;55.10
12130;DHT22;6128;59.340;18.040;2023-05-27T11:06:34;17.50;55.30
12130;DHT22;6128;59.340;18.040;2023-05-27T11:09:01;17.40;55.50
12130;DHT22;6128;59.340;18.040;2023-05-27T11:11:28;17.50;55.70
12130;DHT22;6128;59.340;18.040;2023-05-27T11:13:55;17.60;56.00
12130;DHT22;6128;59.340;18.040;2023-05-27T11:16:24;17.80;56.10
12130;DHT22;6128;59.340;18.040;2023-05-27T11:18:51;17.90;56.30
12130;DHT22;6128;59.340;18.040;2023-05-27T11:21:18;17.90;56.40
12130;DHT22;6128;59.340;18.040;2023-05-27T11:23:48;17.70;56.50
12130;DHT22;6128;59.340;18.040;2023-05-27T11:26:16;17.50;56.80
12130;DHT22;6128;59.340;18.040;2023-05-27T11:28:47;17.50;57.00
12130;DHT22;6128;59.340;18.040;2023-05-27T11:31:15;17.50;57.40
12130;DHT22;6128;59.340;18.040;2023-05-27T11:33:45;17.50;57.70
12130;DHT22;6128;59.340;18.040;2023-05-27T11:36:14;17.60;57.90
12130;DHT22;6128;59.340;18.040;2023-05-27T11:38:52;17.60;58.30
12130;DHT22;6128;59.340;18.040;2023-05-27T11:41:20;17.80;58.40
12130;DHT22;6128;59.340;18.040;2023-05-27T11:43:49;17.80;58.50
12130;DHT22;6128;59.340;18.040;2023-05-27T11:46:17;17.80;58.40
12130;DHT22;6128;59.340;18.040;2023-05-27T11:48:46;17.70;58.60
12130;DHT22;6128;59.340;18.040;2023-05-27T11:51:13;17.70;58.70
12130;DHT22;6128;59.340;18.040;2023-05-27T11:53:44;17.80;58.80
12130;DHT22;6128;59.340;18.040;2023-05-27T11:56:11;17.90;58.90
12130;DHT22;6128;59.340;18.040;2023-05-27T11:58:38;17.90;59.20
12130;DHT22;6128;59.340;18.040;2023-05-27T12:01:06;17.70;59.50
12130;DHT22;6128;59.340;18.040;2023-05-27T12:03:33;17.70;60.10
12130;DHT22;6128;59.340;18.040;2023-05-27T12:06:02;17.70;60.60
12130;DHT22;6128;59.340;18.040;2023-05-27T12:08:30;17.70;61.00
12130;DHT22;6128;59.340;18.040;2023-05-27T12:10:57;17.80;61.30
12130;DHT22;6128;59.340;18.040;2023-05-27T12:13:24;17.70;61.60
12130;DHT22;6128;59.340;18.040;2023-05-27T12:15:53;17.60;62.00
12130;DHT22;6128;59.340;18.040;2023-05-27T12:18:20;17.60;62.30
12130;DHT22;6128;59.340;18.040;2023-05-27T12:20:47;17.70;62.50
12130;DHT22;6128;59.340;18.040;2023-05-27T12:23:16;17.60;62.70
12130;DHT22;6128;59.340;18.040;2023-05-27T12:25:43;17.60;62.90
12130;DHT22;6128;59.340;18.040;2023-05-27T12:28:10;17.60;63.00
12130;DHT22;6128;59.340;18.040;2023-05-27T12:30:38;17.60;63.00
12130;DHT22;6128;59.340;18.040;2023-05-27T12:33:05;17.70;62.90
12130;DHT22;6128;59.340;18.040;2023-05-27T12:35:33;17.70;62.90
12130;DHT22;6128;59.340;18.040;2023-05-27T12:38:00;17.80;63.00
12130;DHT22;6128;59.340;18.040;2023-05-27T12:40:29;17.90;63.00
12130;DHT22;6128;59.340;18.040;2023-05-27T12:42:56;18.00;63.00
12130;DHT22;6128;59.340;18.040;2023-05-27T12:45:24;18.10;63.10
12130;DHT22;6128;59.340;18.040;2023-05-27T12:47:52;18.10;63.20
12130;DHT22;6128;59.340;18.040;2023-05-27T12:50:19;18.10;63.20
12130;DHT22;6128;59.340;18.040;2023-05-27T12:52:47;18.10;63.20
12130;DHT22;6128;59.340;18.040;2023-05-27T12:55:18;18.10;63.30
12130;DHT22;6128;59.340;18.040;2023-05-27T12:57:47;18.00;63.50
12130;DHT22;6128;59.340;18.040;2023-05-27T13:00:15;18.00;63.70
12130;DHT22;6128;59.340;18.040;2023-05-27T13:02:45;18.00;63.80
12130;DHT22;6128;59.340;18.040;2023-05-27T13:05:13;18.00;64.00
12130;DHT22;6128;59.340;18.040;2023-05-27T13:07:41;18.00;64.10
12130;DHT22;6128;59.340;18.040;2023-05-27T13:10:19;18.10;64.00
12130;DHT22;6128;59.340;18.040;2023-05-27T13:12:48;18.10;63.90
12130;DHT22;6128;59.340;18.040;2023-05-27T13:15:16;18.20;63.80
12130;DHT22;6128;59.340;18.040;2023-05-27T13:17:43;18.20;63.70
12130;DHT22;6128;59.340;18.040;2023-05-27T13:20:12;18.30;63.60
12130;DHT22;6128;59.340;18.040;2023-05-27T13:22:39;18.40;63.50
12130;DHT22;6128;59.340;18.040;2023-05-27T13:25:07;18.40;63.40
12130;DHT22;6128;59.340;18.040;2023-05-27T13:27:35;18.40;63.30
12130;DHT22;6128;59.340;18.040;2023-05-27T13:30:04;18.40;63.30
12130;DHT22;6128;59.340;18.040;2023-05-27T13:32:31;18.40;63.20
12130;DHT22;6128;59.340;18.040;2023-05-27T13:34:59;18.50;63.20
12130;DHT22;6128;59.340;18.040;2023-05-27T13:37:27;18.60;63.10
12130;DHT22;6128;59.340;18.040;2023-05-27T13:39:54;18.70;63.10
12130;DHT22;6128;59.340;18.040;2023-05-27T13:42:22;18.80;63.10
12130;DHT22;6128;59.340;18.040;2023-05-27T13:44:51;18.80;63.10
12130;DHT22;6128;59.340;18.040;2023-05-27T13:47:24;18.80;63.10
12130;DHT22;6128;59.340;18.040;2023-05-27T13:49:51;18.70;63.10
12130;DHT22;6128;59.340;18.040;2023-05-27T13:52:19;18.80;63.20
12130;DHT22;6128;59.340;18.040;2023-05-27T13:54:47;18.90;63.20
12130;DHT22;6128;59.340;18.040;2023-05-27T13:57:16;19.10;63.20
12130;DHT22;6128;59.340;18.040;2023-05-27T13:59:45;19.20;63.10
12130;DHT22;6128;59.340;18.040;2023-05-27T14:05:09;19.40;62.50
12130;DHT22;6128;59.340;18.040;2023-05-27T14:07:41;19.40;61.70
12130;DHT22;6128;59.340;18.040;2023-05-27T14:10:10;19.50;61.20
12130;DHT22;6128;59.340;18.040;2023-05-27T14:12:37;19.40;60.90
12130;DHT22;6128;59.340;18.040;2023-05-27T14:15:05;19.40;60.60
12130;DHT22;6128;59.340;18.040;2023-05-27T14:17:34;19.40;60.40
12130;DHT22;6128;59.340;18.040;2023-05-27T14:20:01;19.40;60.10
12130;DHT22;6128;59.340;18.040;2023-05-27T14:22:37;19.40;60.00
12130;DHT22;6128;59.340;18.040;2023-05-27T14:25:05;19.30;59.80
12130;DHT22;6128;59.340;18.040;2023-05-27T14:27:35;19.30;59.80
12130;DHT22;6128;59.340;18.040;2023-05-27T14:30:02;19.30;59.60
12130;DHT22;6128;59.340;18.040;2023-05-27T14:32:31;19.20;59.50
12130;DHT22;6128;59.340;18.040;2023-05-27T14:35:00;19.30;59.40
12130;DHT22;6128;59.340;18.040;2023-05-27T14:37:28;19.50;59.30
12130;DHT22;6128;59.340;18.040;2023-05-27T14:39:56;19.40;59.20
12130;DHT22;6128;59.340;18.040;2023-05-27T14:42:24;19.50;59.00
12130;DHT22;6128;59.340;18.040;2023-05-27T14:44:52;19.40;59.00
12130;DHT22;6128;59.340;18.040;2023-05-27T14:47:20;19.30;58.90
12130;DHT22;6128;59.340;18.040;2023-05-27T14:49:47;19.20;58.80
12130;DHT22;6128;59.340;18.040;2023-05-27T14:52:15;19.10;58.60
12130;DHT22;6128;59.340;18.040;2023-05-27T14:54:42;19.00;58.60
12130;DHT22;6128;59.340;18.040;2023-05-27T14:57:11;19.00;58.60
12130;DHT22;6128;59.340;18.040;2023-05-27T14:59:40;19.00;58.60
12130;DHT22;6128;59.340;18.040;2023-05-27T15:02:08;18.90;58.60
12130;DHT22;6128;59.340;18.040;2023-05-27T15:04:36;18.90;58.60
12130;DHT22;6128;59.340;18.040;2023-05-27T15:07:03;18.80;58.80
12130;DHT22;6128;59.340;18.040;2023-05-27T15:09:31;18.90;58.80
12130;DHT22;6128;59.340;18.040;2023-05-27T15:11:58;18.80;58.90
12130;DHT22;6128;59.340;18.040;2023-05-27T15:14:26;18.80;58.80
12130;DHT22;6128;59.340;18.040;2023-05-27T15:16:53;18.80;58.80
12130;DHT22;6128;59.340;18.040;2023-05-27T15:19:20;18.90;58.80
12130;DHT22;6128;59.340;18.040;2023-05-27T15:21:48;18.90;58.80
12130;DHT22;6128;59.340;18.040;2023-05-27T15:24:15;19.00;58.80
12130;DHT22;6128;59.340;18.040;2023-05-27T15:26:42;19.00;58.70
12130;DHT22;6128;59.340;18.040;2023-05-27T15:29:09;19.10;58.70
12130;DHT22;6128;59.340;18.040;2023-05-27T15:31:38;19.10;58.70
12130;DHT22;6128;59.340;18.040;2023-05-27T15:34:07;19.00;58.60
12130;DHT22;6128;59.340;18.040;2023-05-27T15:36:34;19.10;58.50
12130;DHT22;6128;59.340;18.040;2023-05-27T15:39:02;19.00;58.50